NCAR-RAP Real-Time Weather Data

Output produced by METARs form (05 December 2019  15:30 UTC)
found at http://weather.rap.ucar.edu/surface/
 
KHLN 051453Z 00000KT 10SM SCT047 BKN070 OVC090 M01/M04 A3003 RMK AO2 SLP214 T10061039 53020
KHLN 051353Z 01003KT 10SM BKN050 OVC100 M01/M04 A3001 RMK AO2 SLP206 T10061039
KHLN 051253Z 31003KT 10SM OVC055 00/M03 A2998 RMK AO2 SLP195 T00001033
KHLN 051153Z 32005KT 10SM OVC055 01/M03 A2996 RMK AO2 SLP187 T00111028 10017 20000 53017
KHLN 051053Z 30006KT 10SM OVC055 01/M03 A2994 RMK AO2 SLP177 T00111033
KHLN 050953Z 28005KT 10SM OVC055 01/M03 A2993 RMK AO2 SLP171 T00061028
KHLN 050853Z 29003KT 10SM OVC065 01/M03 A2991 RMK AO2 SLP163 T00061028 51010
KHLN 050753Z 00000KT 10SM OVC065 01/M03 A2990 RMK AO2 SLP162 T00061028
KHLN 050653Z 21004KT 10SM OVC060 01/M02 A2989 RMK AO2 SLP159 T00061022 400441022
KHLN 050553Z 00000KT 10SM OVC055 01/M03 A2988 RMK AO2 SLP158 T00061028 10028 20000 51007
KHLN 050453Z 00000KT 10SM OVC055 02/M03 A2987 RMK AO2 SLP155 T00171028
KHLN 050353Z 08003KT 10SM OVC055 00/M03 A2987 RMK AO2 SLP159 T00001033
KHLN 050253Z 19004KT 10SM FEW055 01/M03 A2985 RMK AO2 SLP153 T00111033 58000
KHLN 050153Z 28004KT 10SM CLR 01/M03 A2986 RMK AO2 SLP154 T00111033
KHLN 050053Z 28005KT 10SM CLR 02/M03 A2985 RMK AO2 SLP151 T00221028
KHLN 042353Z 26005KT 10SM CLR 02/M03 A2985 RMK AO2 SLP150 T00221028 10044 20017 55006
KHLN 042253Z 26005KT 10SM CLR 03/M02 A2985 RMK AO2 SLP146 T00281022
KHLN 042153Z 09004KT 10SM CLR 04/M02 A2985 RMK AO2 SLP146 T00391022
KHLN 042053Z 00000KT 10SM CLR 04/M03 A2987 RMK AO2 SLP151 T00441028 57016